Flight Track Log - Related Links

Times and Time Zones

All times are in EDT time to prevent confusion due to time zone crossing. See the N449ND flight status page for this flight to view local times or setup timezone preferences in your user account.

Time Position Orientation Groundspeed Altitude Reporting Facility
EDT Latitude Longitude Course Direction KTS MPH feet Rate Location/Type
Sat 11:36:07 AM 27.4986 -80.3406 84° East 100 115 700  Level Miami Center
Sat 11:37:07 AM 27.5014 -80.3125 84° East 87 100 1,400 600 Climbing Miami Center
Sat 11:38:07 AM 27.5042 -80.2847 84° East 87 100 1,900 450 Climbing Miami Center
Sat 11:39:07 AM 27.5069 -80.2567 84° East 87 100 2,300 450 Climbing Miami Center
Sat 11:40:07 AM 27.5097 -80.2286 84° East 87 100 2,800 200 Climbing Miami Center
Sat 11:41:07 AM 27.4953 -80.2164 143° Southeast 61 70 2,700 -350 Descending Miami Center
Sat 11:42:07 AM 27.5094 -80.2403 304° West 31 36 2,100 -350 Descending Miami Center
Sat 11:43:07 AM 27.5256 -80.2619 310° West 81 93 2,000 -50 Descending Miami Center
Sat 11:44:07 AM 27.5531 -80.2464 27° Northeast 92 106 2,000  Level Miami Center
Sat 11:45:07 AM 27.5825 -80.2331 22° Northeast 110 127 2,000 -150 Level Miami Center
Sat 11:46:07 AM 27.6008 -80.2594 308° West 83 96 1,700 -300 Descending Miami Center
Sat 11:47:07 AM 27.6106 -80.2900 290° West 98 113 1,400 -100 Descending Miami Center
Sat 11:48:07 AM 27.6203 -80.3208 290° West 108 124 1,500 -50 Climbing Miami Center
Sat 11:49:07 AM 27.6300 -80.3447 295° West 103 119 1,300 -350 Descending Miami Center
Sat 11:50:07 AM 27.6397 -80.3731 291° West 103 119 800 -200 Descending Miami Center
Sat 11:51:07 AM 27.6539 -80.3944 307° West 84 97 900 462 Climbing Miami Center
Sat 11:52:43 AM 27.7000 -80.3914 North 98 113 2,000 423 Climbing Miami Center
Sat 11:53:43 AM 27.7333 -80.3875 North 111 128 2,000 200 Level Miami Center
Sat 11:54:43 AM 27.7647 -80.3861 North 116 133 2,400 400 Climbing Miami Center
Sat 11:55:43 AM 27.7747 -80.4031 304° West 80 92 2,800 300 Climbing Miami Center
Sat 11:56:43 AM 27.7597 -80.4214 227° Southwest 63 72 3,000 100 Climbing Miami Center
Sat 11:57:43 AM 27.7403 -80.4442 226° Southwest 93 107 3,000  Level Miami Center
Sat 11:58:43 AM 27.7253 -80.4625 227° Southwest 88 101 3,000  Level Miami Center
Sat 11:59:43 AM 27.7103 -80.4783 223° Southwest 88 101 3,000  Level Miami Center
Sat 12:00:43 PM 27.6953 -80.4967 227° Southwest 88 101 3,000 50 Level Miami Center
Sat 12:01:43 PM 27.6758 -80.5194 226° Southwest 88 101 3,100 300 Climbing Miami Center
Sat 12:02:43 PM 27.6628 -80.5356 228° Southwest 88 101 3,600 100 Climbing Miami Center
Sat 12:03:43 PM 27.6397 -80.5419 194° South 83 96 3,300 -300 Descending Miami Center
Sat 12:04:43 PM 27.6208 -80.5436 184° South 83 96 3,000 -150 Descending Miami Center
Sat 12:05:43 PM 27.5978 -80.5475 189° South 88 101 3,000 -100 Level Miami Center
Sat 12:06:43 PM 27.5728 -80.5514 188° South 88 101 2,800 -450 Descending Miami Center
Sat 12:07:43 PM 27.5497 -80.5575 193° South 88 101 2,100 -400 Descending Miami Center
Sat 12:08:43 PM 27.5286 -80.5617 190° South 81 93 2,000 -50 Descending Miami Center
Sat 12:09:43 PM 27.5078 -80.5586 173° South 76 87 2,000  Level Miami Center
Sat 12:10:43 PM 27.5003 -80.5256 104° East 82 94 2,000 -100 Level Miami Center
Sat 12:11:43 PM 27.4992 -80.4858 92° East 110 127 1,800 -300 Descending Miami Center
Sat 12:12:43 PM 27.4978 -80.4553 93° East 110 127 1,400 -450 Descending Miami Center
Sat 12:13:43 PM 27.4967 -80.4225 92° East 104 120 900 -500 Descending Miami Center

Login

Don't have an account? Register now (free) for customized features, flight alerts, and more!